createdAt,value
2023-04-22T00:00:48.839Z,27.10
2023-04-22T00:03:11.756Z,24.60
2023-04-22T00:05:34.717Z,28.10
2023-04-22T00:07:57.662Z,24.20
2023-04-22T00:10:20.264Z,28.80
2023-04-22T00:12:43.049Z,25.23
2023-04-22T00:15:06.358Z,24.07
2023-04-22T00:17:29.349Z,25.52
2023-04-22T00:19:52.219Z,26.95
2023-04-22T00:22:14.886Z,25.73
2023-04-22T00:24:37.441Z,25.27
2023-04-22T00:27:00.021Z,24.13
2023-04-22T00:29:22.701Z,25.55
2023-04-22T00:31:45.635Z,23.80
2023-04-22T00:34:08.256Z,25.48
2023-04-22T00:36:31.525Z,25.75
2023-04-22T00:38:54.334Z,27.97
2023-04-22T00:41:17.834Z,27.85
2023-04-22T00:43:40.381Z,26.48
2023-04-22T00:46:03.109Z,24.35
2023-04-22T00:48:28.219Z,28.38
2023-04-22T00:50:51.615Z,24.73
2023-04-22T00:53:14.213Z,25.48
2023-04-22T00:55:36.990Z,27.17
2023-04-22T00:58:01.245Z,27.80
2023-04-22T01:00:27.733Z,25.58
2023-04-22T01:02:50.460Z,26.97
2023-04-22T01:05:13.836Z,24.67
2023-04-22T01:07:36.811Z,28.77
2023-04-22T01:10:00.756Z,30.40
2023-04-22T01:12:23.495Z,28.20
2023-04-22T01:14:46.320Z,25.77
2023-04-22T01:17:10.700Z,26.92
2023-04-22T01:19:33.493Z,26.38
2023-04-22T01:21:58.229Z,28.23
2023-04-22T01:24:21.322Z,29.50
2023-04-22T01:26:44.103Z,27.40
2023-04-22T01:29:06.846Z,25.55
2023-04-22T01:31:30.275Z,27.45
2023-04-22T01:33:53.194Z,27.33
2023-04-22T01:36:16.715Z,25.45
2023-04-22T01:38:40.059Z,26.13
2023-04-22T01:41:03.026Z,27.50
2023-04-22T01:43:27.244Z,26.55
2023-04-22T01:45:49.850Z,28.88
2023-04-22T01:48:12.687Z,31.33
2023-04-22T01:50:35.541Z,25.97
2023-04-22T01:52:58.988Z,26.65
2023-04-22T01:55:21.582Z,27.13
2023-04-22T01:57:44.549Z,29.83
2023-04-22T02:00:08.620Z,27.63
2023-04-22T02:02:41.172Z,26.60
2023-04-22T02:05:04.863Z,25.23
2023-04-22T02:07:27.591Z,28.13
2023-04-22T02:12:27.694Z,29.30
2023-04-22T02:14:50.455Z,26.77
2023-04-22T02:17:17.916Z,28.85
2023-04-22T02:19:42.279Z,29.08
2023-04-22T02:22:05.455Z,27.92
2023-04-22T02:24:28.199Z,31.10
2023-04-22T02:26:51.108Z,29.70
2023-04-22T02:29:13.994Z,26.60
2023-04-22T02:31:37.072Z,25.13
2023-04-22T02:33:59.728Z,28.60
2023-04-22T02:36:23.306Z,28.15
2023-04-22T02:38:46.489Z,29.93
2023-04-22T02:41:10.837Z,26.25
2023-04-22T02:43:33.412Z,26.40
2023-04-22T02:45:56.273Z,23.83
2023-04-22T02:48:18.885Z,25.85
2023-04-22T02:50:42.192Z,26.43
2023-04-22T02:53:04.808Z,25.00
2023-04-22T02:55:28.421Z,29.58
2023-04-22T02:57:51.069Z,26.55
2023-04-22T03:00:14.464Z,26.25
2023-04-22T03:02:37.358Z,28.30
2023-04-22T03:05:06.958Z,26.17
2023-04-22T03:07:30.137Z,24.75
2023-04-22T03:09:55.894Z,24.20
2023-04-22T03:12:19.168Z,27.00
2023-04-22T03:14:42.578Z,27.87
2023-04-22T03:17:05.494Z,27.08
2023-04-22T03:19:28.443Z,25.73
2023-04-22T03:21:51.212Z,24.48
2023-04-22T03:24:13.932Z,26.38
2023-04-22T03:26:42.732Z,29.60
2023-04-22T03:29:11.879Z,24.23
2023-04-22T03:31:34.573Z,26.48
2023-04-22T03:33:57.640Z,30.48
2023-04-22T03:36:23.961Z,27.67
2023-04-22T03:38:47.227Z,25.70
2023-04-22T03:41:10.534Z,27.17
2023-04-22T03:43:36.753Z,25.50
2023-04-22T03:46:04.740Z,24.52
2023-04-22T03:48:30.137Z,25.30
2023-04-22T03:50:53.021Z,25.97
2023-04-22T03:53:15.862Z,27.45
2023-04-22T03:55:38.694Z,26.85
2023-04-22T03:58:01.964Z,29.52
2023-04-22T04:00:25.886Z,27.27
2023-04-22T04:03:01.448Z,22.17
2023-04-22T04:05:25.728Z,26.90
2023-04-22T04:07:48.432Z,24.42
2023-04-22T04:10:11.768Z,24.65
2023-04-22T04:12:34.766Z,24.10
2023-04-22T04:14:57.845Z,26.43
2023-04-22T04:17:25.780Z,23.75
2023-04-22T04:19:49.675Z,25.80
2023-04-22T04:22:12.446Z,23.50
2023-04-22T04:24:45.896Z,24.88
2023-04-22T04:27:14.757Z,23.73
2023-04-22T04:29:44.653Z,21.67
2023-04-22T04:32:12.038Z,23.08
2023-04-22T04:34:34.744Z,22.30
2023-04-22T04:36:58.953Z,25.15
2023-04-22T04:39:30.858Z,21.93
2023-04-22T04:41:55.324Z,24.80
2023-04-22T04:44:18.740Z,22.23
2023-04-22T04:46:42.767Z,25.98
2023-04-22T04:49:06.609Z,24.85
2023-04-22T04:51:36.184Z,22.23
2023-04-22T04:53:59.083Z,22.35
2023-04-22T04:56:25.832Z,22.50
2023-04-22T04:58:48.490Z,22.42
2023-04-22T05:01:15.044Z,24.75
2023-04-22T05:03:39.471Z,23.70
2023-04-22T05:06:04.203Z,26.67
2023-04-22T05:08:27.216Z,26.15
2023-04-22T05:10:56.912Z,27.92
2023-04-22T05:13:19.548Z,24.52
2023-04-22T05:15:44.385Z,24.40
2023-04-22T05:18:07.347Z,23.25
2023-04-22T05:20:30.291Z,23.60
2023-04-22T05:22:53.040Z,24.33
2023-04-22T05:25:16.090Z,22.52
2023-04-22T05:27:47.604Z,24.97
2023-04-22T05:30:10.998Z,22.67
2023-04-22T05:32:34.812Z,22.50
2023-04-22T05:34:57.542Z,22.92
2023-04-22T05:37:21.474Z,21.58
2023-04-22T05:39:46.612Z,19.97
2023-04-22T05:42:10.922Z,20.58
2023-04-22T05:44:33.955Z,19.33
2023-04-22T05:46:56.690Z,20.83
2023-04-22T05:49:20.886Z,22.48
2023-04-22T05:52:09.583Z,19.33
2023-04-22T05:54:45.510Z,17.85
2023-04-22T05:57:08.339Z,23.35
2023-04-22T05:59:31.468Z,21.05
2023-04-22T06:01:54.150Z,20.40
2023-04-22T06:04:16.897Z,19.80
2023-04-22T06:06:40.282Z,18.08
2023-04-22T06:09:02.968Z,21.50
2023-04-22T06:11:25.960Z,22.10
2023-04-22T06:13:48.631Z,19.90
2023-04-22T06:16:12.130Z,21.27
2023-04-22T06:18:38.032Z,17.58
2023-04-22T06:21:04.307Z,17.77
2023-04-22T06:23:26.900Z,17.95
2023-04-22T06:25:49.582Z,16.75
2023-04-22T06:28:13.067Z,17.80
2023-04-22T06:30:36.231Z,17.50
2023-04-22T06:32:58.864Z,15.95
2023-04-22T06:35:22.231Z,14.40
2023-04-22T06:37:45.034Z,14.10
2023-04-22T06:40:08.293Z,14.67
2023-04-22T06:42:55.844Z,13.25
2023-04-22T06:45:36.805Z,14.00
2023-04-22T06:48:28.636Z,13.18
2023-04-22T06:51:23.549Z,11.63
2023-04-22T06:53:46.657Z,12.07
2023-04-22T06:56:12.027Z,10.27
2023-04-22T06:58:34.891Z,10.30
2023-04-22T07:00:58.067Z,10.05
2023-04-22T07:03:21.044Z,12.88
2023-04-22T07:05:54.614Z,8.67
2023-04-22T07:08:17.835Z,10.73
2023-04-22T07:10:40.702Z,11.38
2023-04-22T07:13:35.649Z,9.02
2023-04-22T07:15:58.388Z,11.82
2023-04-22T07:18:21.355Z,10.77
2023-04-22T07:20:44.049Z,12.50
2023-04-22T07:23:06.614Z,13.27
2023-04-22T07:25:29.407Z,12.27
2023-04-22T07:27:52.014Z,13.57
2023-04-22T07:30:14.818Z,13.70
2023-04-22T07:32:37.719Z,13.32
2023-04-22T07:35:00.392Z,12.27
2023-04-22T07:37:23.319Z,11.73
2023-04-22T07:39:45.971Z,14.65
2023-04-22T07:42:08.653Z,14.27
2023-04-22T07:44:31.299Z,13.95
2023-04-22T07:46:54.125Z,12.77
2023-04-22T07:49:17.403Z,11.27
2023-04-22T07:51:41.135Z,13.63
2023-04-22T07:54:04.034Z,10.77
2023-04-22T07:56:26.896Z,10.32
2023-04-22T07:58:49.511Z,11.25
2023-04-22T08:01:12.357Z,12.52
2023-04-22T08:03:35.583Z,9.93
2023-04-22T08:05:58.432Z,12.13
2023-04-22T08:08:21.172Z,10.30
2023-04-22T08:10:43.816Z,10.60
2023-04-22T08:13:06.756Z,11.52
2023-04-22T08:15:29.454Z,9.85
2023-04-22T08:17:52.162Z,13.43
2023-04-22T08:20:16.388Z,13.32
2023-04-22T08:22:39.146Z,11.30
2023-04-22T08:25:01.699Z,9.82
2023-04-22T08:27:24.502Z,10.73
2023-04-22T08:29:47.277Z,10.83
2023-04-22T08:32:09.974Z,9.75
2023-04-22T08:34:32.713Z,11.70
2023-04-22T08:36:55.386Z,13.05
2023-04-22T08:39:18.386Z,9.30
2023-04-22T08:41:43.855Z,9.77
2023-04-22T08:44:06.879Z,9.88
2023-04-22T08:46:31.032Z,11.05
2023-04-22T08:48:54.299Z,11.48
2023-04-22T08:51:19.422Z,10.35
2023-04-22T08:53:46.921Z,12.00
2023-04-22T08:56:11.574Z,12.23
2023-04-22T08:58:35.500Z,9.75
2023-04-22T09:00:58.561Z,10.45
2023-04-22T09:03:21.999Z,10.98
2023-04-22T09:05:45.698Z,11.50
2023-04-22T09:08:30.102Z,12.43
2023-04-22T09:10:53.185Z,11.68
2023-04-22T09:13:17.112Z,11.65
2023-04-22T09:15:39.851Z,13.35
2023-04-22T09:18:04.479Z,11.73
2023-04-22T09:20:29.296Z,11.30
2023-04-22T09:22:53.176Z,11.48
2023-04-22T09:25:21.382Z,10.40
2023-04-22T09:27:48.127Z,12.05
2023-04-22T09:30:13.843Z,9.40
2023-04-22T09:32:36.816Z,9.68
2023-04-22T09:34:59.543Z,10.77
2023-04-22T09:37:28.938Z,11.60
2023-04-22T09:39:58.704Z,10.95
2023-04-22T09:42:23.883Z,8.57
2023-04-22T09:44:54.855Z,10.75
2023-04-22T09:47:17.434Z,9.45
2023-04-22T09:49:45.712Z,10.27
2023-04-22T09:52:08.533Z,11.38
2023-04-22T09:54:31.175Z,8.43
2023-04-22T09:56:55.041Z,10.73
2023-04-22T09:59:28.751Z,9.70
2023-04-22T10:01:53.693Z,10.35
2023-04-22T10:04:21.430Z,10.02
2023-04-22T10:06:44.250Z,12.13
2023-04-22T10:09:09.392Z,10.90
2023-04-22T10:11:32.916Z,9.65
2023-04-22T10:13:55.695Z,12.23
2023-04-22T10:16:21.313Z,11.00
2023-04-22T10:18:45.231Z,12.23
2023-04-22T10:21:08.175Z,11.75
2023-04-22T10:23:32.984Z,11.27
2023-04-22T10:28:22.043Z,11.18
2023-04-22T10:30:44.736Z,10.20
2023-04-22T10:33:28.741Z,9.60
2023-04-22T10:36:14.359Z,9.13
2023-04-22T10:38:38.591Z,10.60
2023-04-22T10:41:01.751Z,11.85
2023-04-22T10:43:47.537Z,10.20
2023-04-22T10:46:35.628Z,10.02
2023-04-22T10:48:59.946Z,9.98
2023-04-22T10:51:42.892Z,11.55
2023-04-22T10:54:05.731Z,10.05
2023-04-22T10:56:28.332Z,13.03
2023-04-22T10:58:51.097Z,9.65
2023-04-22T11:01:16.495Z,10.50
2023-04-22T11:03:39.900Z,8.88
2023-04-22T11:06:22.346Z,10.18
2023-04-22T11:08:49.439Z,10.67
2023-04-22T11:11:14.258Z,12.75
2023-04-22T11:13:37.514Z,11.00
2023-04-22T11:16:00.686Z,10.88
2023-04-22T11:18:26.093Z,10.95
2023-04-22T11:20:50.606Z,11.07
2023-04-22T11:23:18.034Z,10.00
2023-04-22T11:25:40.804Z,10.30
2023-04-22T11:28:03.982Z,9.82
2023-04-22T11:30:28.442Z,11.63
2023-04-22T11:32:55.912Z,10.03
2023-04-22T11:35:21.395Z,10.77
2023-04-22T11:37:45.238Z,9.60
2023-04-22T11:40:28.099Z,9.85
2023-04-22T11:42:53.193Z,8.77
2023-04-22T11:45:16.363Z,10.40
2023-04-22T11:47:40.192Z,9.45
2023-04-22T11:50:07.214Z,10.63
2023-04-22T11:52:54.797Z,9.15
2023-04-22T11:55:30.819Z,9.00
2023-04-22T11:58:07.416Z,9.70
2023-04-22T12:00:51.867Z,8.27
2023-04-22T12:03:16.382Z,8.30
2023-04-22T12:05:43.386Z,8.90
2023-04-22T12:08:10.272Z,9.60
2023-04-22T12:10:33.019Z,7.20
2023-04-22T12:12:55.798Z,8.80
2023-04-22T12:15:18.914Z,9.13
2023-04-22T12:17:45.045Z,11.32
2023-04-22T12:20:13.091Z,9.48
2023-04-22T12:22:36.451Z,9.17
2023-04-22T12:25:00.621Z,6.60
2023-04-22T12:27:23.267Z,8.63
2023-04-22T12:30:13.906Z,10.82
2023-04-22T12:32:36.989Z,10.80
2023-04-22T12:34:59.661Z,7.50
2023-04-22T12:37:22.262Z,9.70
2023-04-22T12:39:46.094Z,7.70
2023-04-22T12:42:08.740Z,10.10
2023-04-22T12:44:32.041Z,9.25
2023-04-22T12:46:54.772Z,8.43
2023-04-22T12:49:17.402Z,10.48
2023-04-22T12:51:40.224Z,11.32
2023-04-22T12:54:02.930Z,9.48
2023-04-22T12:56:25.766Z,7.95
2023-04-22T12:58:48.469Z,6.60
2023-04-22T13:01:11.151Z,9.10
2023-04-22T13:03:33.983Z,6.75
2023-04-22T13:05:56.797Z,8.57
2023-04-22T13:08:19.453Z,8.27
2023-04-22T13:10:42.177Z,9.13
2023-04-22T13:15:30.608Z,7.22
2023-04-22T13:17:53.322Z,10.82
2023-04-22T13:20:16.455Z,8.88
2023-04-22T13:22:40.551Z,7.37
2023-04-22T13:25:04.172Z,8.65
2023-04-22T13:27:26.981Z,8.20
2023-04-22T13:29:49.814Z,9.73
2023-04-22T13:32:27.593Z,9.18
2023-04-22T13:34:50.595Z,10.53
2023-04-22T13:37:15.171Z,8.43
2023-04-22T13:39:38.509Z,7.43
2023-04-22T13:42:01.726Z,9.75
2023-04-22T13:44:24.832Z,8.32
2023-04-22T13:46:47.544Z,8.03
2023-04-22T13:49:11.065Z,8.65
2023-04-22T13:51:34.066Z,8.65
2023-04-22T13:53:56.781Z,8.25
2023-04-22T13:56:19.455Z,8.35
2023-04-22T13:58:43.505Z,10.90
2023-04-22T14:01:07.791Z,9.15
2023-04-22T14:03:31.490Z,8.48
2023-04-22T14:05:54.192Z,8.32
2023-04-22T14:08:16.956Z,10.68
2023-04-22T14:10:39.679Z,7.93
2023-04-22T14:13:02.393Z,8.55
2023-04-22T14:15:25.038Z,9.02
2023-04-22T14:17:49.592Z,9.65
2023-04-22T14:20:12.565Z,7.85
2023-04-22T14:22:35.338Z,7.37
2023-04-22T14:24:58.275Z,8.85
2023-04-22T14:27:21.254Z,9.52
2023-04-22T14:29:45.752Z,10.48
2023-04-22T14:32:09.016Z,9.38
2023-04-22T14:34:31.599Z,8.43
2023-04-22T14:36:54.573Z,7.68
2023-04-22T14:39:17.520Z,10.05
2023-04-22T14:41:40.447Z,10.90
2023-04-22T14:44:03.248Z,8.43
2023-04-22T14:46:26.013Z,10.37
2023-04-22T14:48:48.732Z,8.80
2023-04-22T14:51:12.045Z,8.88
2023-04-22T14:53:34.874Z,8.70
2023-04-22T14:55:57.565Z,7.72
2023-04-22T14:58:20.633Z,10.07
2023-04-22T15:00:43.417Z,7.35
2023-04-22T15:03:06.302Z,11.57
2023-04-22T15:05:29.156Z,9.18
2023-04-22T15:07:51.977Z,8.07
2023-04-22T15:10:15.143Z,8.70
2023-04-22T15:12:37.948Z,12.75
2023-04-22T15:15:00.636Z,10.70
2023-04-22T15:17:24.103Z,8.55
2023-04-22T15:19:47.222Z,9.27
2023-04-22T15:22:09.886Z,8.17
2023-04-22T15:24:32.523Z,8.18
2023-04-22T15:26:55.294Z,8.45
2023-04-22T15:29:18.488Z,9.48
2023-04-22T15:31:41.711Z,10.15
2023-04-22T15:34:04.462Z,9.40
2023-04-22T15:36:27.061Z,10.30
2023-04-22T15:38:57.901Z,8.02
2023-04-22T15:41:20.946Z,12.07
2023-04-22T15:43:43.579Z,7.30
2023-04-22T15:46:08.451Z,8.47
2023-04-22T15:48:32.502Z,10.20
2023-04-22T15:50:55.330Z,7.45
2023-04-22T15:53:18.079Z,9.15
2023-04-22T15:55:40.639Z,8.93
2023-04-22T15:58:03.706Z,8.30
2023-04-22T16:00:26.502Z,9.85
2023-04-22T16:02:55.504Z,9.18
2023-04-22T16:05:19.184Z,9.38
2023-04-22T16:07:42.292Z,7.10
2023-04-22T16:10:05.659Z,8.27
2023-04-22T16:12:29.623Z,8.18
2023-04-22T16:14:53.624Z,8.77
2023-04-22T16:17:17.087Z,10.57
2023-04-22T16:19:41.169Z,11.23
2023-04-22T16:22:03.997Z,9.17
2023-04-22T16:24:26.723Z,8.48
2023-04-22T16:26:49.421Z,10.38
2023-04-22T16:29:11.977Z,10.82
2023-04-22T16:31:35.399Z,11.30
2023-04-22T16:33:59.170Z,9.80
2023-04-22T16:36:22.509Z,9.30
2023-04-22T16:38:45.464Z,11.82
2023-04-22T16:41:10.465Z,8.95
2023-04-22T16:43:33.095Z,11.35
2023-04-22T16:45:55.878Z,11.33
2023-04-22T16:48:18.679Z,10.20
2023-04-22T16:50:41.651Z,8.10
2023-04-22T16:53:04.856Z,9.82
2023-04-22T16:55:27.511Z,12.23
2023-04-22T16:57:50.889Z,9.67
2023-04-22T17:00:14.739Z,9.75
2023-04-22T17:02:37.591Z,10.52
2023-04-22T17:05:04.513Z,10.90
2023-04-22T17:07:27.167Z,11.18
2023-04-22T17:09:50.012Z,10.37
2023-04-22T17:12:15.500Z,9.15
2023-04-22T17:14:38.136Z,9.25
2023-04-22T17:17:00.734Z,11.50
2023-04-22T17:19:24.612Z,11.05
2023-04-22T17:21:47.318Z,9.97
2023-04-22T17:24:09.998Z,11.05
2023-04-22T17:26:33.545Z,11.40
2023-04-22T17:28:56.591Z,10.70
2023-04-22T17:31:19.360Z,10.45
2023-04-22T17:33:42.419Z,10.90
2023-04-22T17:36:05.742Z,11.82
2023-04-22T17:38:28.504Z,12.75
2023-04-22T17:40:51.158Z,11.25
2023-04-22T17:43:15.259Z,11.52
2023-04-22T17:45:37.849Z,9.93
2023-04-22T17:48:00.595Z,11.25
2023-04-22T17:50:24.789Z,11.23
2023-04-22T17:52:47.828Z,9.02
2023-04-22T17:55:11.064Z,11.10
2023-04-22T17:57:33.870Z,11.40
2023-04-22T17:59:56.704Z,13.02
2023-04-22T18:02:20.507Z,10.20
2023-04-22T18:04:43.265Z,8.43
2023-04-22T18:07:05.900Z,9.65
2023-04-22T18:09:28.451Z,12.03
2023-04-22T18:11:51.224Z,15.93
2023-04-22T18:14:14.208Z,11.43
2023-04-22T18:16:37.244Z,9.48
2023-04-22T18:19:02.301Z,10.25
2023-04-22T18:21:25.130Z,9.77
2023-04-22T18:23:48.109Z,11.38
2023-04-22T18:26:11.419Z,10.73
2023-04-22T18:28:34.435Z,11.55
2023-04-22T18:30:57.149Z,11.68
2023-04-22T18:33:19.831Z,10.30
2023-04-22T18:35:42.904Z,11.30
2023-04-22T18:38:07.419Z,11.00
2023-04-22T18:40:30.141Z,11.20
2023-04-22T18:42:52.830Z,12.80
2023-04-22T18:45:16.606Z,12.63
2023-04-22T18:47:39.384Z,12.35
2023-04-22T18:50:02.400Z,10.18
2023-04-22T18:52:25.669Z,11.35
2023-04-22T18:54:48.536Z,11.75
2023-04-22T18:57:11.312Z,13.57
2023-04-22T18:59:33.977Z,11.55
2023-04-22T19:01:57.127Z,10.82
2023-04-22T19:04:20.139Z,12.23
2023-04-22T19:06:42.854Z,11.90
2023-04-22T19:09:05.731Z,10.73
2023-04-22T19:11:28.506Z,10.45
2023-04-22T19:13:53.620Z,11.48
2023-04-22T19:16:16.426Z,11.95
2023-04-22T19:18:39.342Z,12.45
2023-04-22T19:21:02.800Z,13.53
2023-04-22T19:23:25.576Z,11.63
2023-04-22T19:25:48.463Z,14.50
2023-04-22T19:28:11.660Z,10.45
2023-04-22T19:30:34.271Z,12.13
2023-04-22T19:32:57.759Z,14.87
2023-04-22T19:35:20.996Z,11.50
2023-04-22T19:37:45.785Z,13.40
2023-04-22T19:40:09.250Z,14.65
2023-04-22T19:42:32.791Z,14.00
2023-04-22T19:44:57.040Z,15.50
2023-04-22T19:47:20.104Z,23.38
2023-04-22T19:50:06.373Z,25.92
2023-04-22T19:52:30.178Z,22.45
2023-04-22T19:54:58.763Z,20.35
2023-04-22T19:57:21.682Z,18.80
2023-04-22T19:59:46.027Z,19.42
2023-04-22T20:02:09.840Z,19.55
2023-04-22T20:04:33.684Z,22.90
2023-04-22T20:06:57.755Z,23.90
2023-04-22T20:09:21.104Z,18.93
2023-04-22T20:11:44.040Z,22.73
2023-04-22T20:14:09.789Z,18.75
2023-04-22T20:16:34.526Z,18.23
2023-04-22T20:18:57.242Z,19.10
2023-04-22T20:21:20.529Z,19.20
2023-04-22T20:23:43.313Z,20.42
2023-04-22T20:26:06.171Z,20.15
2023-04-22T20:28:39.042Z,18.42
2023-04-22T20:31:01.889Z,21.25
2023-04-22T20:33:25.090Z,19.57
2023-04-22T20:35:49.355Z,18.88
2023-04-22T20:38:13.480Z,18.83
2023-04-22T20:40:36.649Z,19.33
2023-04-22T20:42:59.524Z,19.02
2023-04-22T20:45:22.126Z,18.17
2023-04-22T20:47:45.126Z,18.75
2023-04-22T20:50:08.341Z,18.30
2023-04-22T20:52:31.837Z,18.75
2023-04-22T20:54:56.622Z,20.30
2023-04-22T20:57:19.391Z,20.97
2023-04-22T20:59:42.421Z,21.10
2023-04-22T21:02:06.889Z,20.85
2023-04-22T21:04:31.102Z,18.15
2023-04-22T21:06:54.831Z,20.50
2023-04-22T21:09:21.847Z,21.20
2023-04-22T21:11:44.640Z,19.80
2023-04-22T21:14:07.615Z,18.90
2023-04-22T21:16:30.921Z,21.33
2023-04-22T21:18:58.325Z,18.88
2023-04-22T21:21:23.476Z,19.20
2023-04-22T21:23:46.344Z,19.77
2023-04-22T21:26:10.097Z,19.83
2023-04-22T21:28:33.140Z,17.00
2023-04-22T21:30:56.317Z,19.70
2023-04-22T21:33:19.068Z,20.73
2023-04-22T21:35:41.921Z,17.15
2023-04-22T21:38:05.031Z,15.55
2023-04-22T21:40:27.903Z,14.82
2023-04-22T21:42:51.127Z,13.30
2023-04-22T21:45:13.813Z,13.23
2023-04-22T21:47:36.848Z,15.45
2023-04-22T21:50:00.231Z,14.18
2023-04-22T21:52:23.073Z,13.98
2023-04-22T21:54:45.855Z,14.35
2023-04-22T21:57:09.164Z,15.07
2023-04-22T21:59:31.884Z,16.38
2023-04-22T22:01:54.636Z,14.88
2023-04-22T22:04:17.525Z,12.32
2023-04-22T22:06:40.344Z,13.82
2023-04-22T22:09:03.144Z,12.47
2023-04-22T22:11:30.790Z,12.65
2023-04-22T22:13:54.174Z,15.63
2023-04-22T22:16:17.610Z,12.63
2023-04-22T22:18:40.520Z,20.83
2023-04-22T22:21:05.763Z,23.50
2023-04-22T22:23:28.537Z,24.50
2023-04-22T22:25:51.281Z,27.98
2023-04-22T22:28:13.968Z,27.67
2023-04-22T22:30:36.672Z,28.67
2023-04-22T22:32:59.320Z,28.53
2023-04-22T22:35:22.109Z,31.40
2023-04-22T22:37:44.880Z,29.80
2023-04-22T22:40:08.920Z,33.58
2023-04-22T22:42:32.224Z,29.42
2023-04-22T22:44:54.839Z,30.60
2023-04-22T22:47:17.937Z,31.48
2023-04-22T22:49:40.927Z,32.17
2023-04-22T22:52:04.607Z,30.30
2023-04-22T22:54:27.792Z,31.42
2023-04-22T22:56:50.360Z,33.70
2023-04-22T22:59:13.099Z,31.35
2023-04-22T23:01:36.138Z,30.85
2023-04-22T23:03:59.649Z,30.85
2023-04-22T23:06:22.424Z,32.97
2023-04-22T23:08:45.046Z,32.53
2023-04-22T23:11:07.706Z,29.00
2023-04-22T23:13:30.374Z,27.42
2023-04-22T23:15:53.021Z,27.55
2023-04-22T23:18:17.702Z,25.75
2023-04-22T23:20:41.638Z,27.73
2023-04-22T23:23:05.041Z,26.95
2023-04-22T23:25:28.207Z,27.73
2023-04-22T23:27:51.354Z,28.05
2023-04-22T23:30:14.334Z,27.27
2023-04-22T23:32:39.695Z,25.03
2023-04-22T23:35:03.842Z,26.17
2023-04-22T23:37:28.453Z,26.48
2023-04-22T23:39:51.217Z,26.15
2023-04-22T23:42:13.985Z,25.75
2023-04-22T23:44:37.144Z,24.13
2023-04-22T23:46:59.819Z,25.13
2023-04-22T23:49:22.400Z,26.38
2023-04-22T23:51:45.217Z,27.00
2023-04-22T23:54:07.712Z,24.08
2023-04-22T23:56:31.319Z,25.40
2023-04-22T23:58:54.240Z,26.40
